sensor_id;sensor_type;location;lat;lon;timestamp;pressure;altitude;pressure_sealevel;temperature;humidity
35848;BME280;22332;51.954;20.118;2022-12-07T00:02:58;99488.25;;;4.11;84.56
35848;BME280;22332;51.954;20.118;2022-12-07T00:06:02;99484.25;;;4.07;84.58
35848;BME280;22332;51.954;20.118;2022-12-07T00:09:06;99479.86;;;4.06;84.73
35848;BME280;22332;51.954;20.118;2022-12-07T00:12:10;99477.27;;;4.06;84.71
35848;BME280;22332;51.954;20.118;2022-12-07T00:15:12;99477.15;;;4.07;84.74
35848;BME280;22332;51.954;20.118;2022-12-07T00:18:15;99476.59;;;4.12;84.84
35848;BME280;22332;51.954;20.118;2022-12-07T00:21:21;99474.27;;;4.18;84.66
35848;BME280;22332;51.954;20.118;2022-12-07T00:24:24;99472.78;;;4.21;84.53
35848;BME280;22332;51.954;20.118;2022-12-07T00:27:28;99472.34;;;4.20;84.49
35848;BME280;22332;51.954;20.118;2022-12-07T00:30:31;99471.04;;;4.17;84.47
35848;BME280;22332;51.954;20.118;2022-12-07T00:33:34;99475.35;;;4.16;84.44
35848;BME280;22332;51.954;20.118;2022-12-07T00:36:37;99472.86;;;4.17;84.49
35848;BME280;22332;51.954;20.118;2022-12-07T00:39:39;99478.08;;;4.15;84.41
35848;BME280;22332;51.954;20.118;2022-12-07T00:42:42;99479.37;;;4.12;84.43
35848;BME280;22332;51.954;20.118;2022-12-07T00:45:45;99481.93;;;4.13;84.30
35848;BME280;22332;51.954;20.118;2022-12-07T00:48:50;99482.77;;;4.16;84.42
35848;BME280;22332;51.954;20.118;2022-12-07T00:51:53;99482.63;;;4.19;84.34
35848;BME280;22332;51.954;20.118;2022-12-07T00:54:56;99481.85;;;4.20;84.23
35848;BME280;22332;51.954;20.118;2022-12-07T00:57:58;99479.17;;;4.17;84.10
35848;BME280;22332;51.954;20.118;2022-12-07T01:01:02;99478.53;;;4.12;84.08
35848;BME280;22332;51.954;20.118;2022-12-07T01:04:06;99474.34;;;4.09;84.07
35848;BME280;22332;51.954;20.118;2022-12-07T01:07:09;99476.45;;;4.05;84.07
35848;BME280;22332;51.954;20.118;2022-12-07T01:10:12;99474.57;;;3.99;84.09
35848;BME280;22332;51.954;20.118;2022-12-07T01:13:16;99473.05;;;3.93;84.15
35848;BME280;22332;51.954;20.118;2022-12-07T01:16:19;99470.45;;;3.91;84.18
35848;BME280;22332;51.954;20.118;2022-12-07T01:19:22;99467.81;;;3.93;84.18
35848;BME280;22332;51.954;20.118;2022-12-07T01:22:25;99468.36;;;3.97;84.19
35848;BME280;22332;51.954;20.118;2022-12-07T01:25:28;99468.73;;;3.99;84.18
35848;BME280;22332;51.954;20.118;2022-12-07T01:28:32;99465.38;;;3.99;83.96
35848;BME280;22332;51.954;20.118;2022-12-07T01:31:35;99461.02;;;3.96;84.05
35848;BME280;22332;51.954;20.118;2022-12-07T01:34:38;99460.66;;;3.94;84.01
35848;BME280;22332;51.954;20.118;2022-12-07T01:37:41;99460.81;;;3.88;83.81
35848;BME280;22332;51.954;20.118;2022-12-07T01:40:43;99457.94;;;3.83;83.92
35848;BME280;22332;51.954;20.118;2022-12-07T01:44:11;99452.14;;;3.79;83.91
35848;BME280;22332;51.954;20.118;2022-12-07T01:47:14;99451.52;;;3.77;84.07
35848;BME280;22332;51.954;20.118;2022-12-07T01:50:17;99452.89;;;3.82;84.03
35848;BME280;22332;51.954;20.118;2022-12-07T01:53:21;99447.73;;;3.87;83.88
35848;BME280;22332;51.954;20.118;2022-12-07T01:56:28;99445.83;;;3.86;83.68
35848;BME280;22332;51.954;20.118;2022-12-07T01:59:31;99444.04;;;3.85;83.70
35848;BME280;22332;51.954;20.118;2022-12-07T02:02:36;99440.77;;;3.80;83.61
35848;BME280;22332;51.954;20.118;2022-12-07T02:05:41;99435.14;;;3.73;83.82
35848;BME280;22332;51.954;20.118;2022-12-07T02:08:46;99427.40;;;3.71;83.85
35848;BME280;22332;51.954;20.118;2022-12-07T02:11:49;99424.36;;;3.70;83.70
35848;BME280;22332;51.954;20.118;2022-12-07T02:14:52;99422.52;;;3.69;83.70
35848;BME280;22332;51.954;20.118;2022-12-07T02:17:59;99426.59;;;3.71;83.76
35848;BME280;22332;51.954;20.118;2022-12-07T02:21:08;99426.11;;;3.74;83.97
35848;BME280;22332;51.954;20.118;2022-12-07T02:24:30;99422.20;;;3.79;83.96
35848;BME280;22332;51.954;20.118;2022-12-07T02:27:46;99419.02;;;3.83;83.79
35848;BME280;22332;51.954;20.118;2022-12-07T02:30:50;99419.57;;;3.85;83.70
35848;BME280;22332;51.954;20.118;2022-12-07T02:34:00;99414.11;;;3.85;83.54
35848;BME280;22332;51.954;20.118;2022-12-07T02:37:12;99414.11;;;3.83;83.60
35848;BME280;22332;51.954;20.118;2022-12-07T02:40:23;99414.83;;;3.81;83.75
35848;BME280;22332;51.954;20.118;2022-12-07T02:43:30;99417.70;;;3.78;83.57
35848;BME280;22332;51.954;20.118;2022-12-07T02:46:37;99416.02;;;3.73;83.76
35848;BME280;22332;51.954;20.118;2022-12-07T02:49:41;99410.91;;;3.73;83.81
35848;BME280;22332;51.954;20.118;2022-12-07T02:52:44;99406.55;;;3.77;83.70
35848;BME280;22332;51.954;20.118;2022-12-07T02:55:47;99406.32;;;3.79;83.78
35848;BME280;22332;51.954;20.118;2022-12-07T02:58:57;99402.37;;;3.80;83.50
35848;BME280;22332;51.954;20.118;2022-12-07T03:02:13;99398.33;;;3.76;83.51
35848;BME280;22332;51.954;20.118;2022-12-07T03:05:34;99396.77;;;3.74;83.60
35848;BME280;22332;51.954;20.118;2022-12-07T03:08:45;99394.58;;;3.72;83.52
35848;BME280;22332;51.954;20.118;2022-12-07T03:11:55;99396.48;;;3.67;83.49
35848;BME280;22332;51.954;20.118;2022-12-07T03:15:07;99393.51;;;3.60;83.57
35848;BME280;22332;51.954;20.118;2022-12-07T03:18:13;99397.59;;;3.60;83.63
35848;BME280;22332;51.954;20.118;2022-12-07T03:21:22;99393.88;;;3.60;83.64
35848;BME280;22332;51.954;20.118;2022-12-07T03:24:29;99394.26;;;3.64;83.72
35848;BME280;22332;51.954;20.118;2022-12-07T03:27:35;99393.36;;;3.70;83.60
35848;BME280;22332;51.954;20.118;2022-12-07T03:30:44;99391.89;;;3.77;83.65
35848;BME280;22332;51.954;20.118;2022-12-07T03:33:52;99387.95;;;3.80;83.64
35848;BME280;22332;51.954;20.118;2022-12-07T03:37:00;99390.13;;;3.80;83.43
35848;BME280;22332;51.954;20.118;2022-12-07T03:40:11;99385.63;;;3.79;83.44
35848;BME280;22332;51.954;20.118;2022-12-07T03:43:16;99383.10;;;3.75;83.53
35848;BME280;22332;51.954;20.118;2022-12-07T03:46:25;99377.70;;;3.72;83.48
35848;BME280;22332;51.954;20.118;2022-12-07T03:49:34;99378.02;;;3.71;83.47
35848;BME280;22332;51.954;20.118;2022-12-07T03:52:42;99376.80;;;3.71;83.49
35848;BME280;22332;51.954;20.118;2022-12-07T03:55:46;99377.86;;;3.73;83.63
35848;BME280;22332;51.954;20.118;2022-12-07T03:58:52;99375.91;;;3.77;83.51
35848;BME280;22332;51.954;20.118;2022-12-07T04:01:57;99372.35;;;3.80;83.53
35848;BME280;22332;51.954;20.118;2022-12-07T04:05:05;99374.31;;;3.79;83.26
35848;BME280;22332;51.954;20.118;2022-12-07T04:08:08;99373.20;;;3.80;83.41
35848;BME280;22332;51.954;20.118;2022-12-07T04:11:10;99373.27;;;3.81;83.30
35848;BME280;22332;51.954;20.118;2022-12-07T04:14:13;99371.67;;;3.79;83.29
35848;BME280;22332;51.954;20.118;2022-12-07T04:17:22;99373.75;;;3.78;83.40
35848;BME280;22332;51.954;20.118;2022-12-07T04:20:25;99370.88;;;3.76;83.46
35848;BME280;22332;51.954;20.118;2022-12-07T04:23:28;99369.85;;;3.74;83.30
35848;BME280;22332;51.954;20.118;2022-12-07T04:26:30;99368.09;;;3.72;83.24
35848;BME280;22332;51.954;20.118;2022-12-07T04:29:33;99366.73;;;3.71;83.22
35848;BME280;22332;51.954;20.118;2022-12-07T04:32:36;99365.33;;;3.71;83.25
35848;BME280;22332;51.954;20.118;2022-12-07T04:35:39;99364.17;;;3.72;83.05
35848;BME280;22332;51.954;20.118;2022-12-07T04:38:42;99360.92;;;3.73;83.12
35848;BME280;22332;51.954;20.118;2022-12-07T04:41:45;99361.89;;;3.74;83.08
35848;BME280;22332;51.954;20.118;2022-12-07T04:44:47;99362.17;;;3.75;83.07
35848;BME280;22332;51.954;20.118;2022-12-07T04:47:50;99360.86;;;3.72;83.04
35848;BME280;22332;51.954;20.118;2022-12-07T04:50:53;99355.02;;;3.67;83.05
35848;BME280;22332;51.954;20.118;2022-12-07T04:53:56;99353.33;;;3.64;83.01
35848;BME280;22332;51.954;20.118;2022-12-07T04:56:59;99348.70;;;3.62;83.09
35848;BME280;22332;51.954;20.118;2022-12-07T05:00:03;99346.02;;;3.61;83.07
35848;BME280;22332;51.954;20.118;2022-12-07T05:03:06;99341.45;;;3.58;83.13
35848;BME280;22332;51.954;20.118;2022-12-07T05:06:10;99341.04;;;3.61;83.13
35848;BME280;22332;51.954;20.118;2022-12-07T05:09:13;99341.17;;;3.66;83.05
35848;BME280;22332;51.954;20.118;2022-12-07T05:12:16;99337.24;;;3.68;83.04
35848;BME280;22332;51.954;20.118;2022-12-07T05:15:19;99336.48;;;3.69;83.04
35848;BME280;22332;51.954;20.118;2022-12-07T05:18:22;99334.17;;;3.67;82.84
35848;BME280;22332;51.954;20.118;2022-12-07T05:21:25;99334.98;;;3.64;82.79
35848;BME280;22332;51.954;20.118;2022-12-07T05:24:28;99335.17;;;3.62;82.86
35848;BME280;22332;51.954;20.118;2022-12-07T05:27:30;99336.71;;;3.58;82.85
35848;BME280;22332;51.954;20.118;2022-12-07T05:30:33;99340.81;;;3.53;83.02
35848;BME280;22332;51.954;20.118;2022-12-07T05:33:36;99335.55;;;3.51;82.93
35848;BME280;22332;51.954;20.118;2022-12-07T05:36:39;99334.84;;;3.49;82.83
35848;BME280;22332;51.954;20.118;2022-12-07T05:39:42;99335.44;;;3.50;83.07
35848;BME280;22332;51.954;20.118;2022-12-07T05:42:45;99334.77;;;3.54;82.92
35848;BME280;22332;51.954;20.118;2022-12-07T05:45:48;99336.25;;;3.53;82.88
35848;BME280;22332;51.954;20.118;2022-12-07T05:48:51;99338.20;;;3.51;82.99
35848;BME280;22332;51.954;20.118;2022-12-07T05:51:53;99341.55;;;3.51;82.85
35848;BME280;22332;51.954;20.118;2022-12-07T05:54:57;99341.71;;;3.51;82.92
35848;BME280;22332;51.954;20.118;2022-12-07T05:57:59;99341.61;;;3.50;82.91
35848;BME280;22332;51.954;20.118;2022-12-07T06:01:23;99342.91;;;3.45;82.89
35848;BME280;22332;51.954;20.118;2022-12-07T06:04:27;99340.91;;;3.42;82.85
35848;BME280;22332;51.954;20.118;2022-12-07T06:07:30;99344.48;;;3.41;83.10
35848;BME280;22332;51.954;20.118;2022-12-07T06:10:33;99341.77;;;3.42;83.08
35848;BME280;22332;51.954;20.118;2022-12-07T06:13:36;99343.37;;;3.46;83.05
35848;BME280;22332;51.954;20.118;2022-12-07T06:16:39;99340.36;;;3.48;83.07
35848;BME280;22332;51.954;20.118;2022-12-07T06:19:41;99339.09;;;3.49;83.02
35848;BME280;22332;51.954;20.118;2022-12-07T06:22:44;99342.34;;;3.50;83.08
35848;BME280;22332;51.954;20.118;2022-12-07T06:25:47;99341.58;;;3.47;83.06
35848;BME280;22332;51.954;20.118;2022-12-07T06:28:50;99341.95;;;3.44;83.05
35848;BME280;22332;51.954;20.118;2022-12-07T06:31:53;99341.79;;;3.42;83.20
35848;BME280;22332;51.954;20.118;2022-12-07T06:34:56;99345.10;;;3.38;83.25
35848;BME280;22332;51.954;20.118;2022-12-07T06:37:58;99346.19;;;3.33;83.42
35848;BME280;22332;51.954;20.118;2022-12-07T06:41:01;99349.77;;;3.30;83.49
35848;BME280;22332;51.954;20.118;2022-12-07T06:44:05;99354.94;;;3.32;83.60
35848;BME280;22332;51.954;20.118;2022-12-07T06:47:09;99352.11;;;3.36;83.71
35848;BME280;22332;51.954;20.118;2022-12-07T06:50:11;99350.09;;;3.37;83.85
35848;BME280;22332;51.954;20.118;2022-12-07T06:53:14;99346.98;;;3.37;83.68
35848;BME280;22332;51.954;20.118;2022-12-07T06:56:17;99343.31;;;3.30;83.86
35848;BME280;22332;51.954;20.118;2022-12-07T06:59:20;99347.08;;;3.23;83.99
35848;BME280;22332;51.954;20.118;2022-12-07T07:02:23;99348.83;;;3.19;84.19
35848;BME280;22332;51.954;20.118;2022-12-07T07:05:25;99345.29;;;3.23;84.25
35848;BME280;22332;51.954;20.118;2022-12-07T07:08:28;99349.77;;;3.30;84.19
35848;BME280;22332;51.954;20.118;2022-12-07T07:11:31;99347.23;;;3.38;84.09
35848;BME280;22332;51.954;20.118;2022-12-07T07:14:34;99347.27;;;3.39;84.23
35848;BME280;22332;51.954;20.118;2022-12-07T07:17:36;99351.48;;;3.37;84.10
35848;BME280;22332;51.954;20.118;2022-12-07T07:20:39;99345.77;;;3.37;84.19
35848;BME280;22332;51.954;20.118;2022-12-07T07:23:42;99342.05;;;3.30;84.14
35848;BME280;22332;51.954;20.118;2022-12-07T07:26:45;99341.58;;;3.21;84.38
35848;BME280;22332;51.954;20.118;2022-12-07T07:29:48;99345.30;;;3.14;84.64
35848;BME280;22332;51.954;20.118;2022-12-07T07:32:50;99348.95;;;3.11;84.80
35848;BME280;22332;51.954;20.118;2022-12-07T07:35:53;99351.94;;;3.11;84.96
35848;BME280;22332;51.954;20.118;2022-12-07T07:38:56;99353.49;;;3.15;85.11
35848;BME280;22332;51.954;20.118;2022-12-07T07:41:59;99354.52;;;3.13;85.07
35848;BME280;22332;51.954;20.118;2022-12-07T07:45:03;99356.48;;;3.09;85.01
35848;BME280;22332;51.954;20.118;2022-12-07T07:48:07;99360.02;;;3.07;85.09
35848;BME280;22332;51.954;20.118;2022-12-07T07:51:09;99368.69;;;3.06;85.14
35848;BME280;22332;51.954;20.118;2022-12-07T07:54:12;99367.65;;;3.06;85.21
35848;BME280;22332;51.954;20.118;2022-12-07T07:57:16;99367.90;;;3.13;85.12
35848;BME280;22332;51.954;20.118;2022-12-07T08:00:21;99370.36;;;3.11;85.01
35848;BME280;22332;51.954;20.118;2022-12-07T08:03:24;99368.84;;;3.08;85.07
35848;BME280;22332;51.954;20.118;2022-12-07T08:06:26;99373.08;;;3.08;85.06
35848;BME280;22332;51.954;20.118;2022-12-07T08:09:29;99381.52;;;3.08;85.06
35848;BME280;22332;51.954;20.118;2022-12-07T08:12:36;99384.79;;;3.08;84.99
35848;BME280;22332;51.954;20.118;2022-12-07T08:15:41;99382.63;;;3.18;85.02
35848;BME280;22332;51.954;20.118;2022-12-07T08:18:44;99383.59;;;3.34;84.96
35848;BME280;22332;51.954;20.118;2022-12-07T08:21:47;99383.48;;;3.46;84.63
35848;BME280;22332;51.954;20.118;2022-12-07T08:24:50;99387.47;;;3.48;84.79
35848;BME280;22332;51.954;20.118;2022-12-07T08:27:53;99383.79;;;3.59;84.54
35848;BME280;22332;51.954;20.118;2022-12-07T08:30:59;99385.12;;;3.64;84.40
35848;BME280;22332;51.954;20.118;2022-12-07T08:34:03;99388.80;;;3.64;84.43
35848;BME280;22332;51.954;20.118;2022-12-07T08:37:05;99390.32;;;3.69;84.39
35848;BME280;22332;51.954;20.118;2022-12-07T08:40:10;99388.58;;;3.77;84.37
35848;BME280;22332;51.954;20.118;2022-12-07T08:43:17;99388.88;;;3.86;84.38
35848;BME280;22332;51.954;20.118;2022-12-07T08:46:21;99387.98;;;3.92;83.96
35848;BME280;22332;51.954;20.118;2022-12-07T08:49:30;99388.02;;;3.94;83.92
35848;BME280;22332;51.954;20.118;2022-12-07T08:52:35;99389.27;;;3.96;84.05
35848;BME280;22332;51.954;20.118;2022-12-07T08:55:38;99387.67;;;3.96;83.87
35848;BME280;22332;51.954;20.118;2022-12-07T08:58:42;99384.48;;;3.94;84.02
35848;BME280;22332;51.954;20.118;2022-12-07T09:01:45;99379.52;;;3.94;83.88
35848;BME280;22332;51.954;20.118;2022-12-07T09:04:48;99377.91;;;3.88;83.96
35848;BME280;22332;51.954;20.118;2022-12-07T09:07:52;99376.31;;;3.89;84.00
35848;BME280;22332;51.954;20.118;2022-12-07T09:10:57;99371.70;;;3.89;83.81
35848;BME280;22332;51.954;20.118;2022-12-07T09:14:00;99367.90;;;3.90;83.62
35848;BME280;22332;51.954;20.118;2022-12-07T09:17:07;99357.86;;;3.95;83.78
35848;BME280;22332;51.954;20.118;2022-12-07T09:20:12;99358.39;;;4.01;83.61
35848;BME280;22332;51.954;20.118;2022-12-07T09:23:15;99359.64;;;4.03;83.76
35848;BME280;22332;51.954;20.118;2022-12-07T09:26:17;99356.38;;;4.11;83.88
35848;BME280;22332;51.954;20.118;2022-12-07T09:29:20;99355.93;;;4.17;83.86
35848;BME280;22332;51.954;20.118;2022-12-07T09:32:23;99349.80;;;4.21;83.70
35848;BME280;22332;51.954;20.118;2022-12-07T09:35:26;99345.98;;;4.24;83.64
35848;BME280;22332;51.954;20.118;2022-12-07T09:38:29;99348.77;;;4.24;83.48
35848;BME280;22332;51.954;20.118;2022-12-07T09:41:38;99344.90;;;4.26;83.51
35848;BME280;22332;51.954;20.118;2022-12-07T09:44:42;99350.23;;;4.36;83.73
35848;BME280;22332;51.954;20.118;2022-12-07T09:47:45;99349.38;;;4.41;83.33
35848;BME280;22332;51.954;20.118;2022-12-07T09:50:48;99353.21;;;4.40;83.13
35848;BME280;22332;51.954;20.118;2022-12-07T09:53:53;99354.36;;;4.37;83.27
35848;BME280;22332;51.954;20.118;2022-12-07T09:56:56;99351.34;;;4.35;83.08
35848;BME280;22332;51.954;20.118;2022-12-07T10:00:03;99354.55;;;4.30;83.27
35848;BME280;22332;51.954;20.118;2022-12-07T10:03:10;99355.45;;;4.28;83.33
35848;BME280;22332;51.954;20.118;2022-12-07T10:06:14;99353.36;;;4.26;83.22
35848;BME280;22332;51.954;20.118;2022-12-07T10:09:18;99346.70;;;4.24;83.10
35848;BME280;22332;51.954;20.118;2022-12-07T10:12:22;99347.73;;;4.22;82.99
35848;BME280;22332;51.954;20.118;2022-12-07T10:15:41;99345.09;;;4.24;83.19
35848;BME280;22332;51.954;20.118;2022-12-07T10:18:44;99340.39;;;4.32;83.13
35848;BME280;22332;51.954;20.118;2022-12-07T10:22:01;99337.12;;;4.37;83.09
35848;BME280;22332;51.954;20.118;2022-12-07T10:25:13;99336.27;;;4.35;82.98
35848;BME280;22332;51.954;20.118;2022-12-07T10:28:20;99333.06;;;4.30;83.00
35848;BME280;22332;51.954;20.118;2022-12-07T10:31:23;99332.10;;;4.32;83.09
35848;BME280;22332;51.954;20.118;2022-12-07T10:34:28;99330.68;;;4.34;83.18
35848;BME280;22332;51.954;20.118;2022-12-07T10:37:40;99331.56;;;4.29;83.14
35848;BME280;22332;51.954;20.118;2022-12-07T10:40:43;99328.84;;;4.27;83.11
35848;BME280;22332;51.954;20.118;2022-12-07T10:43:55;99330.64;;;4.26;83.19
35848;BME280;22332;51.954;20.118;2022-12-07T10:47:09;99330.96;;;4.33;83.16
35848;BME280;22332;51.954;20.118;2022-12-07T10:50:29;99325.41;;;4.40;83.28
35848;BME280;22332;51.954;20.118;2022-12-07T10:53:53;99330.62;;;4.46;83.17
35848;BME280;22332;51.954;20.118;2022-12-07T10:57:21;99327.12;;;4.54;83.13
35848;BME280;22332;51.954;20.118;2022-12-07T11:00:28;99323.16;;;4.63;83.26
35848;BME280;22332;51.954;20.118;2022-12-07T11:03:41;99312.90;;;4.65;83.23
35848;BME280;22332;51.954;20.118;2022-12-07T11:06:53;99319.04;;;4.67;83.11
35848;BME280;22332;51.954;20.118;2022-12-07T11:10:06;99316.36;;;4.64;82.85
35848;BME280;22332;51.954;20.118;2022-12-07T11:13:23;99311.73;;;4.57;82.96
35848;BME280;22332;51.954;20.118;2022-12-07T11:16:41;99308.52;;;4.53;82.83
35848;BME280;22332;51.954;20.118;2022-12-07T11:19:59;99309.92;;;4.51;82.68
35848;BME280;22332;51.954;20.118;2022-12-07T11:23:15;99309.67;;;4.50;82.81
35848;BME280;22332;51.954;20.118;2022-12-07T11:26:30;99302.23;;;4.49;82.60
35848;BME280;22332;51.954;20.118;2022-12-07T11:29:52;99301.50;;;4.43;82.38
35848;BME280;22332;51.954;20.118;2022-12-07T11:33:13;99301.72;;;4.35;82.84
35848;BME280;22332;51.954;20.118;2022-12-07T11:36:32;99299.73;;;4.31;82.72
35848;BME280;22332;51.954;20.118;2022-12-07T11:39:41;99294.48;;;4.27;82.56
35848;BME280;22332;51.954;20.118;2022-12-07T11:42:52;99288.83;;;4.22;82.45
35848;BME280;22332;51.954;20.118;2022-12-07T11:46:00;99290.67;;;4.15;82.42
35848;BME280;22332;51.954;20.118;2022-12-07T11:49:12;99289.84;;;4.10;82.51
35848;BME280;22332;51.954;20.118;2022-12-07T11:52:22;99290.69;;;4.06;82.51
35848;BME280;22332;51.954;20.118;2022-12-07T11:55:39;99290.02;;;4.06;82.46
35848;BME280;22332;51.954;20.118;2022-12-07T11:58:51;99286.23;;;4.07;82.35
35848;BME280;22332;51.954;20.118;2022-12-07T12:02:02;99284.73;;;4.06;82.20
35848;BME280;22332;51.954;20.118;2022-12-07T12:05:17;99284.25;;;4.04;82.19
35848;BME280;22332;51.954;20.118;2022-12-07T12:08:25;99281.08;;;4.01;82.27
35848;BME280;22332;51.954;20.118;2022-12-07T12:11:42;99278.94;;;4.00;82.31
35848;BME280;22332;51.954;20.118;2022-12-07T12:14:59;99275.35;;;3.95;82.27
35848;BME280;22332;51.954;20.118;2022-12-07T12:18:32;99267.91;;;3.91;82.14
35848;BME280;22332;51.954;20.118;2022-12-07T12:21:40;99261.66;;;3.90;82.17
35848;BME280;22332;51.954;20.118;2022-12-07T12:24:45;99264.40;;;3.97;82.23
35848;BME280;22332;51.954;20.118;2022-12-07T12:27:51;99270.11;;;4.04;81.97
35848;BME280;22332;51.954;20.118;2022-12-07T12:31:13;99268.95;;;4.04;81.50
35848;BME280;22332;51.954;20.118;2022-12-07T12:34:40;99265.67;;;4.05;81.24
35848;BME280;22332;51.954;20.118;2022-12-07T12:37:45;99262.50;;;4.05;81.25
35848;BME280;22332;51.954;20.118;2022-12-07T12:40:49;99254.78;;;4.04;81.20
35848;BME280;22332;51.954;20.118;2022-12-07T12:43:52;99257.35;;;3.99;81.04
35848;BME280;22332;51.954;20.118;2022-12-07T12:46:56;99256.73;;;3.94;81.09
35848;BME280;22332;51.954;20.118;2022-12-07T12:50:17;99256.77;;;3.88;80.75
35848;BME280;22332;51.954;20.118;2022-12-07T12:53:24;99250.85;;;3.77;80.89
35848;BME280;22332;51.954;20.118;2022-12-07T12:56:35;99248.42;;;3.72;80.96
35848;BME280;22332;51.954;20.118;2022-12-07T12:59:42;99246.71;;;3.70;81.07
35848;BME280;22332;51.954;20.118;2022-12-07T13:03:00;99244.42;;;3.70;80.91
35848;BME280;22332;51.954;20.118;2022-12-07T13:06:28;99247.11;;;3.71;80.82
35848;BME280;22332;51.954;20.118;2022-12-07T13:09:35;99242.16;;;3.78;80.77
35848;BME280;22332;51.954;20.118;2022-12-07T13:12:40;99242.46;;;3.90;80.73
35848;BME280;22332;51.954;20.118;2022-12-07T13:15:45;99240.45;;;3.95;80.11
35848;BME280;22332;51.954;20.118;2022-12-07T13:18:48;99238.09;;;3.92;79.96
35848;BME280;22332;51.954;20.118;2022-12-07T13:21:51;99240.73;;;3.86;80.29
35848;BME280;22332;51.954;20.118;2022-12-07T13:24:56;99234.11;;;3.83;80.50
35848;BME280;22332;51.954;20.118;2022-12-07T13:28:04;99235.42;;;3.84;80.53
35848;BME280;22332;51.954;20.118;2022-12-07T13:31:16;99233.40;;;3.83;80.55
35848;BME280;22332;51.954;20.118;2022-12-07T13:34:30;99236.45;;;3.83;80.62
35848;BME280;22332;51.954;20.118;2022-12-07T13:37:34;99233.77;;;3.79;80.63
35848;BME280;22332;51.954;20.118;2022-12-07T13:40:37;99238.67;;;3.73;80.68
35848;BME280;22332;51.954;20.118;2022-12-07T13:43:50;99240.02;;;3.68;80.78
35848;BME280;22332;51.954;20.118;2022-12-07T13:47:00;99243.08;;;3.69;80.99
35848;BME280;22332;51.954;20.118;2022-12-07T13:50:20;99242.75;;;3.75;81.01
35848;BME280;22332;51.954;20.118;2022-12-07T13:53:24;99245.58;;;3.79;81.07
35848;BME280;22332;51.954;20.118;2022-12-07T13:56:33;99237.44;;;3.81;81.07
35848;BME280;22332;51.954;20.118;2022-12-07T13:59:37;99231.30;;;3.81;80.97
35848;BME280;22332;51.954;20.118;2022-12-07T14:02:56;99233.11;;;3.79;80.99
35848;BME280;22332;51.954;20.118;2022-12-07T14:06:24;99229.48;;;3.74;81.02
35848;BME280;22332;51.954;20.118;2022-12-07T14:09:29;99231.84;;;3.71;81.30
35848;BME280;22332;51.954;20.118;2022-12-07T14:12:35;99231.91;;;3.68;81.03
35848;BME280;22332;51.954;20.118;2022-12-07T14:15:38;99234.92;;;3.64;81.23
35848;BME280;22332;51.954;20.118;2022-12-07T14:18:41;99228.99;;;3.61;81.21
35848;BME280;22332;51.954;20.118;2022-12-07T14:21:44;99227.48;;;3.63;81.28
35848;BME280;22332;51.954;20.118;2022-12-07T14:24:47;99228.52;;;3.65;81.36
35848;BME280;22332;51.954;20.118;2022-12-07T14:27:52;99226.77;;;3.65;81.16
35848;BME280;22332;51.954;20.118;2022-12-07T14:30:58;99229.13;;;3.62;81.38
35848;BME280;22332;51.954;20.118;2022-12-07T14:34:00;99233.14;;;3.60;81.34
35848;BME280;22332;51.954;20.118;2022-12-07T14:37:06;99234.20;;;3.56;81.28
35848;BME280;22332;51.954;20.118;2022-12-07T14:40:13;99233.71;;;3.51;81.32
35848;BME280;22332;51.954;20.118;2022-12-07T14:43:17;99235.27;;;3.50;81.42
35848;BME280;22332;51.954;20.118;2022-12-07T14:46:21;99233.09;;;3.46;81.56
35848;BME280;22332;51.954;20.118;2022-12-07T14:49:24;99234.95;;;3.43;81.63
35848;BME280;22332;51.954;20.118;2022-12-07T14:52:28;99236.59;;;3.43;81.63
35848;BME280;22332;51.954;20.118;2022-12-07T14:55:32;99235.09;;;3.44;81.69
35848;BME280;22332;51.954;20.118;2022-12-07T14:58:35;99233.25;;;3.45;81.58
35848;BME280;22332;51.954;20.118;2022-12-07T15:01:38;99229.32;;;3.47;81.75
35848;BME280;22332;51.954;20.118;2022-12-07T15:04:41;99228.71;;;3.48;81.71
35848;BME280;22332;51.954;20.118;2022-12-07T15:07:44;99221.67;;;3.48;81.60
35848;BME280;22332;51.954;20.118;2022-12-07T15:10:47;99219.58;;;3.44;81.72
35848;BME280;22332;51.954;20.118;2022-12-07T15:13:50;99217.44;;;3.42;81.64
35848;BME280;22332;51.954;20.118;2022-12-07T15:22:32;99214.30;;;3.36;81.88
35848;BME280;22332;51.954;20.118;2022-12-07T15:53:47;99215.50;;;3.32;81.51
35848;BME280;22332;51.954;20.118;2022-12-07T16:02:10;99217.08;;;3.30;81.49
35848;BME280;22332;51.954;20.118;2022-12-07T16:14:59;99209.89;;;3.52;81.33
35848;BME280;22332;51.954;20.118;2022-12-07T16:37:11;99217.60;;;3.30;81.36
35848;BME280;22332;51.954;20.118;2022-12-07T16:45:32;99217.09;;;3.26;81.50
35848;BME280;22332;51.954;20.118;2022-12-07T16:58:38;99215.59;;;3.45;81.20
35848;BME280;22332;51.954;20.118;2022-12-07T17:07:00;99219.99;;;3.49;81.35
35848;BME280;22332;51.954;20.118;2022-12-07T17:15:22;99219.85;;;3.41;81.12
35848;BME280;22332;51.954;20.118;2022-12-07T17:23:44;99224.56;;;3.29;81.27
35848;BME280;22332;51.954;20.118;2022-12-07T17:36:27;99231.66;;;3.45;81.14
35848;BME280;22332;51.954;20.118;2022-12-07T17:54:11;99242.60;;;3.11;80.85
35848;BME280;22332;51.954;20.118;2022-12-07T18:02:16;99262.04;;;3.00;80.94
35848;BME280;22332;51.954;20.118;2022-12-07T18:05:20;99262.83;;;2.99;80.89
35848;BME280;22332;51.954;20.118;2022-12-07T18:08:23;99262.84;;;3.03;80.98
35848;BME280;22332;51.954;20.118;2022-12-07T18:11:26;99261.86;;;3.04;81.01
35848;BME280;22332;51.954;20.118;2022-12-07T18:14:29;99260.64;;;3.04;80.77
35848;BME280;22332;51.954;20.118;2022-12-07T18:17:32;99258.60;;;3.01;80.98
35848;BME280;22332;51.954;20.118;2022-12-07T18:20:35;99264.86;;;2.95;80.62
35848;BME280;22332;51.954;20.118;2022-12-07T18:23:38;99274.17;;;2.87;80.71
35848;BME280;22332;51.954;20.118;2022-12-07T18:26:41;99269.56;;;2.77;80.65
35848;BME280;22332;51.954;20.118;2022-12-07T18:29:44;99273.38;;;2.69;80.82
35848;BME280;22332;51.954;20.118;2022-12-07T18:32:47;99277.14;;;2.61;80.86
35848;BME280;22332;51.954;20.118;2022-12-07T18:35:50;99280.95;;;2.58;80.96